sensor_id;sensor_type;location;lat;lon;timestamp;P1;durP1;ratioP1;P2;durP2;ratioP2
52854;SDS011;38719;51.418;7.286;2022-07-29T00:00:38;11.07;;;3.20;;
52854;SDS011;38719;51.418;7.286;2022-07-29T00:03:07;6.55;;;2.83;;
52854;SDS011;38719;51.418;7.286;2022-07-29T00:05:35;7.15;;;3.28;;
52854;SDS011;38719;51.418;7.286;2022-07-29T00:08:03;6.40;;;2.97;;
52854;SDS011;38719;51.418;7.286;2022-07-29T00:10:37;5.18;;;2.83;;
52854;SDS011;38719;51.418;7.286;2022-07-29T00:13:05;10.40;;;3.25;;
52854;SDS011;38719;51.418;7.286;2022-07-29T00:15:33;8.15;;;2.80;;
52854;SDS011;38719;51.418;7.286;2022-07-29T00:18:00;5.35;;;2.90;;
52854;SDS011;38719;51.418;7.286;2022-07-29T00:20:29;6.18;;;2.92;;
52854;SDS011;38719;51.418;7.286;2022-07-29T00:22:57;5.88;;;2.90;;
52854;SDS011;38719;51.418;7.286;2022-07-29T00:25:25;7.32;;;2.83;;
52854;SDS011;38719;51.418;7.286;2022-07-29T00:27:52;10.27;;;2.83;;
52854;SDS011;38719;51.418;7.286;2022-07-29T00:30:20;5.85;;;2.60;;
52854;SDS011;38719;51.418;7.286;2022-07-29T00:32:48;7.63;;;2.83;;
52854;SDS011;38719;51.418;7.286;2022-07-29T00:35:15;8.75;;;2.80;;
52854;SDS011;38719;51.418;7.286;2022-07-29T00:38:02;5.93;;;2.53;;
52854;SDS011;38719;51.418;7.286;2022-07-29T00:40:29;9.52;;;2.70;;
52854;SDS011;38719;51.418;7.286;2022-07-29T00:42:57;6.53;;;3.00;;
52854;SDS011;38719;51.418;7.286;2022-07-29T00:45:25;6.07;;;2.90;;
52854;SDS011;38719;51.418;7.286;2022-07-29T00:47:52;8.45;;;2.97;;
52854;SDS011;38719;51.418;7.286;2022-07-29T00:50:20;8.02;;;2.80;;
52854;SDS011;38719;51.418;7.286;2022-07-29T00:52:48;6.57;;;2.92;;
52854;SDS011;38719;51.418;7.286;2022-07-29T00:55:17;4.35;;;2.75;;
52854;SDS011;38719;51.418;7.286;2022-07-29T00:57:45;6.25;;;3.00;;
52854;SDS011;38719;51.418;7.286;2022-07-29T01:00:15;8.23;;;3.00;;
52854;SDS011;38719;51.418;7.286;2022-07-29T01:02:44;9.32;;;3.05;;
52854;SDS011;38719;51.418;7.286;2022-07-29T01:05:14;12.38;;;2.80;;
52854;SDS011;38719;51.418;7.286;2022-07-29T01:07:45;4.95;;;2.80;;
52854;SDS011;38719;51.418;7.286;2022-07-29T01:10:13;6.53;;;2.70;;
52854;SDS011;38719;51.418;7.286;2022-07-29T01:12:44;8.18;;;2.80;;
52854;SDS011;38719;51.418;7.286;2022-07-29T01:15:15;7.53;;;2.70;;
52854;SDS011;38719;51.418;7.286;2022-07-29T01:17:43;7.10;;;2.38;;
52854;SDS011;38719;51.418;7.286;2022-07-29T01:20:20;6.47;;;2.55;;
52854;SDS011;38719;51.418;7.286;2022-07-29T01:23:01;9.05;;;2.40;;
52854;SDS011;38719;51.418;7.286;2022-07-29T01:28:59;12.40;;;2.95;;
52854;SDS011;38719;51.418;7.286;2022-07-29T01:31:35;5.22;;;3.25;;
52854;SDS011;38719;51.418;7.286;2022-07-29T01:34:27;4.78;;;2.05;;
52854;SDS011;38719;51.418;7.286;2022-07-29T01:37:01;9.38;;;2.42;;
52854;SDS011;38719;51.418;7.286;2022-07-29T01:39:36;5.40;;;2.50;;
52854;SDS011;38719;51.418;7.286;2022-07-29T01:42:08;9.20;;;2.95;;
52854;SDS011;38719;51.418;7.286;2022-07-29T01:44:50;7.80;;;2.38;;
52854;SDS011;38719;51.418;7.286;2022-07-29T01:47:24;5.13;;;2.42;;
52854;SDS011;38719;51.418;7.286;2022-07-29T01:50:00;8.60;;;2.38;;
52854;SDS011;38719;51.418;7.286;2022-07-29T01:52:34;5.90;;;2.50;;
52854;SDS011;38719;51.418;7.286;2022-07-29T01:55:07;7.40;;;3.05;;
52854;SDS011;38719;51.418;7.286;2022-07-29T01:57:39;6.85;;;2.58;;
52854;SDS011;38719;51.418;7.286;2022-07-29T02:00:12;11.57;;;2.97;;
52854;SDS011;38719;51.418;7.286;2022-07-29T02:02:41;5.97;;;2.75;;
52854;SDS011;38719;51.418;7.286;2022-07-29T02:05:11;6.28;;;2.33;;
52854;SDS011;38719;51.418;7.286;2022-07-29T02:07:42;7.28;;;2.50;;
52854;SDS011;38719;51.418;7.286;2022-07-29T02:10:11;8.20;;;2.60;;
52854;SDS011;38719;51.418;7.286;2022-07-29T02:12:40;6.22;;;2.25;;
52854;SDS011;38719;51.418;7.286;2022-07-29T02:15:17;4.18;;;2.40;;
52854;SDS011;38719;51.418;7.286;2022-07-29T02:17:49;5.68;;;2.83;;
52854;SDS011;38719;51.418;7.286;2022-07-29T02:20:22;6.95;;;2.60;;
52854;SDS011;38719;51.418;7.286;2022-07-29T02:22:52;9.27;;;2.60;;
52854;SDS011;38719;51.418;7.286;2022-07-29T02:25:22;8.05;;;2.25;;
52854;SDS011;38719;51.418;7.286;2022-07-29T02:28:03;9.68;;;2.60;;
52854;SDS011;38719;51.418;7.286;2022-07-29T02:30:33;5.28;;;2.45;;
52854;SDS011;38719;51.418;7.286;2022-07-29T02:33:06;4.30;;;2.45;;
52854;SDS011;38719;51.418;7.286;2022-07-29T02:35:35;5.60;;;2.60;;
52854;SDS011;38719;51.418;7.286;2022-07-29T02:38:05;11.75;;;2.97;;
52854;SDS011;38719;51.418;7.286;2022-07-29T02:40:50;7.55;;;2.70;;
52854;SDS011;38719;51.418;7.286;2022-07-29T02:43:21;6.00;;;2.47;;
52854;SDS011;38719;51.418;7.286;2022-07-29T02:45:52;5.80;;;2.90;;
52854;SDS011;38719;51.418;7.286;2022-07-29T02:48:22;6.00;;;2.53;;
52854;SDS011;38719;51.418;7.286;2022-07-29T02:51:01;5.30;;;2.55;;
52854;SDS011;38719;51.418;7.286;2022-07-29T02:53:37;8.15;;;2.63;;
52854;SDS011;38719;51.418;7.286;2022-07-29T02:56:08;5.47;;;2.42;;
52854;SDS011;38719;51.418;7.286;2022-07-29T02:58:41;3.13;;;2.50;;
52854;SDS011;38719;51.418;7.286;2022-07-29T03:01:14;5.00;;;2.45;;
52854;SDS011;38719;51.418;7.286;2022-07-29T03:06:16;6.75;;;2.40;;
52854;SDS011;38719;51.418;7.286;2022-07-29T03:09:03;5.10;;;2.40;;
52854;SDS011;38719;51.418;7.286;2022-07-29T03:11:38;8.35;;;2.70;;
52854;SDS011;38719;51.418;7.286;2022-07-29T03:14:16;5.65;;;2.70;;
52854;SDS011;38719;51.418;7.286;2022-07-29T03:16:48;7.47;;;2.65;;
52854;SDS011;38719;51.418;7.286;2022-07-29T03:19:16;4.38;;;2.38;;
52854;SDS011;38719;51.418;7.286;2022-07-29T03:21:44;5.57;;;2.58;;
52854;SDS011;38719;51.418;7.286;2022-07-29T03:24:24;7.30;;;2.67;;
52854;SDS011;38719;51.418;7.286;2022-07-29T03:26:54;6.75;;;2.65;;
52854;SDS011;38719;51.418;7.286;2022-07-29T03:29:22;11.50;;;2.58;;
52854;SDS011;38719;51.418;7.286;2022-07-29T03:31:59;3.28;;;2.40;;
52854;SDS011;38719;51.418;7.286;2022-07-29T03:34:29;9.27;;;2.55;;
52854;SDS011;38719;51.418;7.286;2022-07-29T03:36:57;7.13;;;2.80;;
52854;SDS011;38719;51.418;7.286;2022-07-29T03:39:25;13.30;;;3.10;;
52854;SDS011;38719;51.418;7.286;2022-07-29T03:41:56;7.07;;;2.60;;
52854;SDS011;38719;51.418;7.286;2022-07-29T03:44:26;6.43;;;2.80;;
52854;SDS011;38719;51.418;7.286;2022-07-29T03:46:55;7.60;;;3.00;;
52854;SDS011;38719;51.418;7.286;2022-07-29T03:49:27;7.28;;;2.60;;
52854;SDS011;38719;51.418;7.286;2022-07-29T03:51:55;5.72;;;2.75;;
52854;SDS011;38719;51.418;7.286;2022-07-29T03:54:22;7.10;;;2.63;;
52854;SDS011;38719;51.418;7.286;2022-07-29T03:56:50;8.13;;;2.58;;
52854;SDS011;38719;51.418;7.286;2022-07-29T03:59:19;3.75;;;2.33;;
52854;SDS011;38719;51.418;7.286;2022-07-29T04:01:48;6.55;;;3.08;;
52854;SDS011;38719;51.418;7.286;2022-07-29T04:04:17;6.38;;;2.83;;
52854;SDS011;38719;51.418;7.286;2022-07-29T04:06:46;7.00;;;2.67;;
52854;SDS011;38719;51.418;7.286;2022-07-29T04:09:14;8.55;;;2.80;;
52854;SDS011;38719;51.418;7.286;2022-07-29T04:11:42;6.72;;;2.63;;
52854;SDS011;38719;51.418;7.286;2022-07-29T04:14:30;6.90;;;2.70;;
52854;SDS011;38719;51.418;7.286;2022-07-29T04:16:58;9.65;;;2.65;;
52854;SDS011;38719;51.418;7.286;2022-07-29T04:19:26;10.32;;;2.60;;
52854;SDS011;38719;51.418;7.286;2022-07-29T04:21:55;7.45;;;3.08;;
52854;SDS011;38719;51.418;7.286;2022-07-29T04:24:22;5.50;;;2.40;;
52854;SDS011;38719;51.418;7.286;2022-07-29T04:26:50;8.48;;;2.67;;
52854;SDS011;38719;51.418;7.286;2022-07-29T04:29:18;7.07;;;2.40;;
52854;SDS011;38719;51.418;7.286;2022-07-29T04:31:45;5.97;;;2.40;;
52854;SDS011;38719;51.418;7.286;2022-07-29T04:34:13;11.50;;;2.70;;
52854;SDS011;38719;51.418;7.286;2022-07-29T04:36:41;5.78;;;2.72;;
52854;SDS011;38719;51.418;7.286;2022-07-29T04:39:10;11.43;;;2.78;;
52854;SDS011;38719;51.418;7.286;2022-07-29T04:41:38;23.42;;;2.90;;
52854;SDS011;38719;51.418;7.286;2022-07-29T04:44:08;8.15;;;2.97;;
52854;SDS011;38719;51.418;7.286;2022-07-29T04:46:35;8.18;;;3.10;;
52854;SDS011;38719;51.418;7.286;2022-07-29T04:49:03;23.13;;;3.38;;
52854;SDS011;38719;51.418;7.286;2022-07-29T04:51:31;17.08;;;3.67;;
52854;SDS011;38719;51.418;7.286;2022-07-29T04:53:58;10.40;;;3.35;;
52854;SDS011;38719;51.418;7.286;2022-07-29T04:56:27;10.55;;;3.72;;
52854;SDS011;38719;51.418;7.286;2022-07-29T04:58:55;10.32;;;3.85;;
52854;SDS011;38719;51.418;7.286;2022-07-29T05:01:22;7.63;;;3.55;;
52854;SDS011;38719;51.418;7.286;2022-07-29T05:03:50;5.97;;;3.50;;
52854;SDS011;38719;51.418;7.286;2022-07-29T05:06:25;9.02;;;3.00;;
52854;SDS011;38719;51.418;7.286;2022-07-29T05:08:52;10.75;;;3.90;;
52854;SDS011;38719;51.418;7.286;2022-07-29T05:11:20;14.82;;;3.75;;
52854;SDS011;38719;51.418;7.286;2022-07-29T05:13:56;13.85;;;3.70;;
52854;SDS011;38719;51.418;7.286;2022-07-29T05:16:24;6.95;;;3.25;;
52854;SDS011;38719;51.418;7.286;2022-07-29T05:18:51;8.57;;;3.70;;
52854;SDS011;38719;51.418;7.286;2022-07-29T05:21:19;9.85;;;3.75;;
52854;SDS011;38719;51.418;7.286;2022-07-29T05:23:46;7.68;;;3.20;;
52854;SDS011;38719;51.418;7.286;2022-07-29T05:26:14;8.55;;;3.90;;
52854;SDS011;38719;51.418;7.286;2022-07-29T05:28:41;7.57;;;3.88;;
52854;SDS011;38719;51.418;7.286;2022-07-29T05:31:10;5.57;;;3.25;;
52854;SDS011;38719;51.418;7.286;2022-07-29T05:33:40;14.98;;;3.95;;
52854;SDS011;38719;51.418;7.286;2022-07-29T05:36:08;6.95;;;3.67;;
52854;SDS011;38719;51.418;7.286;2022-07-29T05:38:36;9.90;;;3.67;;
52854;SDS011;38719;51.418;7.286;2022-07-29T05:41:03;5.72;;;3.50;;
52854;SDS011;38719;51.418;7.286;2022-07-29T05:43:31;6.70;;;3.85;;
52854;SDS011;38719;51.418;7.286;2022-07-29T05:45:59;7.35;;;3.53;;
52854;SDS011;38719;51.418;7.286;2022-07-29T05:48:28;8.90;;;4.07;;
52854;SDS011;38719;51.418;7.286;2022-07-29T05:50:56;8.48;;;3.63;;
52854;SDS011;38719;51.418;7.286;2022-07-29T05:53:24;6.70;;;3.90;;
52854;SDS011;38719;51.418;7.286;2022-07-29T05:55:51;8.95;;;3.75;;
52854;SDS011;38719;51.418;7.286;2022-07-29T05:58:19;6.57;;;3.72;;
52854;SDS011;38719;51.418;7.286;2022-07-29T06:00:47;7.43;;;4.63;;
52854;SDS011;38719;51.418;7.286;2022-07-29T06:03:15;9.32;;;4.07;;
52854;SDS011;38719;51.418;7.286;2022-07-29T06:05:44;10.82;;;4.07;;
52854;SDS011;38719;51.418;7.286;2022-07-29T06:08:11;8.05;;;4.03;;
52854;SDS011;38719;51.418;7.286;2022-07-29T06:10:39;10.38;;;3.65;;
52854;SDS011;38719;51.418;7.286;2022-07-29T06:13:06;28.40;;;4.20;;
52854;SDS011;38719;51.418;7.286;2022-07-29T06:15:34;11.07;;;4.13;;
52854;SDS011;38719;51.418;7.286;2022-07-29T06:18:02;10.27;;;3.90;;
52854;SDS011;38719;51.418;7.286;2022-07-29T06:20:30;10.82;;;4.53;;
52854;SDS011;38719;51.418;7.286;2022-07-29T06:22:59;8.02;;;3.70;;
52854;SDS011;38719;51.418;7.286;2022-07-29T06:25:30;10.90;;;3.65;;
52854;SDS011;38719;51.418;7.286;2022-07-29T06:27:58;13.13;;;3.70;;
52854;SDS011;38719;51.418;7.286;2022-07-29T06:30:26;9.20;;;3.70;;
52854;SDS011;38719;51.418;7.286;2022-07-29T06:32:54;9.82;;;3.72;;
52854;SDS011;38719;51.418;7.286;2022-07-29T06:35:22;10.77;;;3.97;;
52854;SDS011;38719;51.418;7.286;2022-07-29T06:38:09;6.43;;;3.88;;
52854;SDS011;38719;51.418;7.286;2022-07-29T06:40:57;13.05;;;4.03;;
52854;SDS011;38719;51.418;7.286;2022-07-29T06:43:32;8.30;;;3.67;;
52854;SDS011;38719;51.418;7.286;2022-07-29T06:46:16;9.77;;;3.60;;
52854;SDS011;38719;51.418;7.286;2022-07-29T06:48:45;10.70;;;4.50;;
52854;SDS011;38719;51.418;7.286;2022-07-29T06:51:14;5.65;;;3.92;;
52854;SDS011;38719;51.418;7.286;2022-07-29T06:53:49;16.67;;;4.05;;
52854;SDS011;38719;51.418;7.286;2022-07-29T06:56:28;9.40;;;3.53;;
52854;SDS011;38719;51.418;7.286;2022-07-29T06:58:56;19.25;;;3.90;;
52854;SDS011;38719;51.418;7.286;2022-07-29T07:01:23;10.30;;;4.00;;
52854;SDS011;38719;51.418;7.286;2022-07-29T07:03:51;13.98;;;4.15;;
52854;SDS011;38719;51.418;7.286;2022-07-29T07:06:18;12.43;;;4.32;;
52854;SDS011;38719;51.418;7.286;2022-07-29T07:08:46;6.85;;;3.67;;
52854;SDS011;38719;51.418;7.286;2022-07-29T07:11:15;6.72;;;3.53;;
52854;SDS011;38719;51.418;7.286;2022-07-29T07:13:43;8.73;;;3.65;;
52854;SDS011;38719;51.418;7.286;2022-07-29T07:16:10;6.22;;;3.78;;
52854;SDS011;38719;51.418;7.286;2022-07-29T07:18:38;5.85;;;3.58;;
52854;SDS011;38719;51.418;7.286;2022-07-29T07:21:06;7.30;;;3.92;;
52854;SDS011;38719;51.418;7.286;2022-07-29T07:23:34;8.18;;;3.80;;
52854;SDS011;38719;51.418;7.286;2022-07-29T07:26:01;9.73;;;3.53;;
52854;SDS011;38719;51.418;7.286;2022-07-29T07:28:33;5.53;;;3.67;;
52854;SDS011;38719;51.418;7.286;2022-07-29T07:31:00;7.35;;;3.92;;
52854;SDS011;38719;51.418;7.286;2022-07-29T07:33:28;7.43;;;3.35;;
52854;SDS011;38719;51.418;7.286;2022-07-29T07:35:56;9.52;;;3.67;;
52854;SDS011;38719;51.418;7.286;2022-07-29T07:38:23;7.07;;;3.58;;
52854;SDS011;38719;51.418;7.286;2022-07-29T07:40:51;5.65;;;3.50;;
52854;SDS011;38719;51.418;7.286;2022-07-29T07:43:18;7.03;;;3.40;;
52854;SDS011;38719;51.418;7.286;2022-07-29T07:45:47;4.90;;;3.60;;
52854;SDS011;38719;51.418;7.286;2022-07-29T07:48:15;8.68;;;3.70;;
52854;SDS011;38719;51.418;7.286;2022-07-29T07:50:42;7.18;;;3.75;;
52854;SDS011;38719;51.418;7.286;2022-07-29T07:53:10;8.57;;;3.33;;
52854;SDS011;38719;51.418;7.286;2022-07-29T07:55:39;8.30;;;3.75;;
52854;SDS011;38719;51.418;7.286;2022-07-29T07:58:27;5.45;;;3.50;;
52854;SDS011;38719;51.418;7.286;2022-07-29T08:00:56;6.45;;;3.38;;
52854;SDS011;38719;51.418;7.286;2022-07-29T08:03:24;10.38;;;3.85;;
52854;SDS011;38719;51.418;7.286;2022-07-29T08:05:51;8.50;;;3.60;;
52854;SDS011;38719;51.418;7.286;2022-07-29T08:08:20;9.32;;;3.63;;
52854;SDS011;38719;51.418;7.286;2022-07-29T08:10:48;8.68;;;3.60;;
52854;SDS011;38719;51.418;7.286;2022-07-29T08:13:23;6.57;;;3.63;;
52854;SDS011;38719;51.418;7.286;2022-07-29T08:15:54;8.02;;;3.35;;
52854;SDS011;38719;51.418;7.286;2022-07-29T08:18:28;5.50;;;3.30;;
52854;SDS011;38719;51.418;7.286;2022-07-29T08:20:57;11.50;;;3.70;;
52854;SDS011;38719;51.418;7.286;2022-07-29T08:23:25;10.15;;;4.13;;
52854;SDS011;38719;51.418;7.286;2022-07-29T08:26:14;11.88;;;3.60;;
52854;SDS011;38719;51.418;7.286;2022-07-29T08:28:43;8.10;;;3.42;;
52854;SDS011;38719;51.418;7.286;2022-07-29T08:31:12;7.50;;;3.45;;
52854;SDS011;38719;51.418;7.286;2022-07-29T08:33:41;6.88;;;3.20;;
52854;SDS011;38719;51.418;7.286;2022-07-29T08:36:09;5.88;;;3.72;;
52854;SDS011;38719;51.418;7.286;2022-07-29T08:38:39;7.18;;;3.55;;
52854;SDS011;38719;51.418;7.286;2022-07-29T08:41:06;5.40;;;3.38;;
52854;SDS011;38719;51.418;7.286;2022-07-29T08:43:34;8.13;;;4.03;;
52854;SDS011;38719;51.418;7.286;2022-07-29T08:46:03;7.35;;;3.40;;
52854;SDS011;38719;51.418;7.286;2022-07-29T08:48:31;10.05;;;3.28;;
52854;SDS011;38719;51.418;7.286;2022-07-29T08:51:01;7.10;;;3.30;;
52854;SDS011;38719;51.418;7.286;2022-07-29T08:53:30;6.05;;;3.15;;
52854;SDS011;38719;51.418;7.286;2022-07-29T08:55:59;8.25;;;3.83;;
52854;SDS011;38719;51.418;7.286;2022-07-29T08:58:27;8.70;;;3.22;;
52854;SDS011;38719;51.418;7.286;2022-07-29T09:01:02;8.05;;;3.47;;
52854;SDS011;38719;51.418;7.286;2022-07-29T09:03:37;9.20;;;3.67;;
52854;SDS011;38719;51.418;7.286;2022-07-29T09:06:08;8.85;;;3.60;;
52854;SDS011;38719;51.418;7.286;2022-07-29T09:08:36;10.50;;;3.40;;
52854;SDS011;38719;51.418;7.286;2022-07-29T09:11:03;8.02;;;4.28;;
52854;SDS011;38719;51.418;7.286;2022-07-29T09:13:33;12.82;;;3.80;;
52854;SDS011;38719;51.418;7.286;2022-07-29T09:16:02;7.13;;;3.65;;
52854;SDS011;38719;51.418;7.286;2022-07-29T09:18:35;5.15;;;3.38;;
52854;SDS011;38719;51.418;7.286;2022-07-29T09:21:04;8.65;;;3.80;;
52854;SDS011;38719;51.418;7.286;2022-07-29T09:24:04;6.75;;;3.65;;
52854;SDS011;38719;51.418;7.286;2022-07-29T09:26:34;10.63;;;3.50;;
52854;SDS011;38719;51.418;7.286;2022-07-29T09:29:10;9.38;;;3.67;;
52854;SDS011;38719;51.418;7.286;2022-07-29T09:31:39;8.20;;;3.28;;
52854;SDS011;38719;51.418;7.286;2022-07-29T09:34:08;7.70;;;3.40;;
52854;SDS011;38719;51.418;7.286;2022-07-29T09:36:40;10.60;;;3.53;;
52854;SDS011;38719;51.418;7.286;2022-07-29T09:39:10;9.75;;;3.47;;
52854;SDS011;38719;51.418;7.286;2022-07-29T09:41:45;8.43;;;3.67;;
52854;SDS011;38719;51.418;7.286;2022-07-29T09:44:13;9.63;;;3.30;;
52854;SDS011;38719;51.418;7.286;2022-07-29T09:46:52;6.20;;;3.40;;
52854;SDS011;38719;51.418;7.286;2022-07-29T09:49:32;7.00;;;3.35;;
52854;SDS011;38719;51.418;7.286;2022-07-29T09:52:02;11.05;;;3.28;;
52854;SDS011;38719;51.418;7.286;2022-07-29T09:54:33;7.35;;;3.30;;
52854;SDS011;38719;51.418;7.286;2022-07-29T09:57:04;9.25;;;3.33;;
52854;SDS011;38719;51.418;7.286;2022-07-29T09:59:32;9.73;;;3.22;;
52854;SDS011;38719;51.418;7.286;2022-07-29T10:02:00;8.30;;;3.40;;
52854;SDS011;38719;51.418;7.286;2022-07-29T10:04:37;13.45;;;3.72;;
52854;SDS011;38719;51.418;7.286;2022-07-29T10:07:06;11.13;;;3.20;;
52854;SDS011;38719;51.418;7.286;2022-07-29T10:09:35;12.20;;;3.95;;
52854;SDS011;38719;51.418;7.286;2022-07-29T10:12:07;14.90;;;3.85;;
52854;SDS011;38719;51.418;7.286;2022-07-29T10:14:37;12.73;;;3.95;;
52854;SDS011;38719;51.418;7.286;2022-07-29T10:17:05;9.73;;;3.75;;
52854;SDS011;38719;51.418;7.286;2022-07-29T10:19:34;10.05;;;3.60;;
52854;SDS011;38719;51.418;7.286;2022-07-29T10:22:03;8.07;;;3.55;;
52854;SDS011;38719;51.418;7.286;2022-07-29T10:24:34;9.65;;;4.05;;
52854;SDS011;38719;51.418;7.286;2022-07-29T10:27:04;8.43;;;3.67;;
52854;SDS011;38719;51.418;7.286;2022-07-29T10:29:32;11.88;;;4.03;;
52854;SDS011;38719;51.418;7.286;2022-07-29T10:32:16;14.07;;;3.70;;
52854;SDS011;38719;51.418;7.286;2022-07-29T10:35:03;10.30;;;3.50;;
52854;SDS011;38719;51.418;7.286;2022-07-29T10:37:44;8.70;;;4.10;;
52854;SDS011;38719;51.418;7.286;2022-07-29T10:40:25;9.93;;;4.38;;
52854;SDS011;38719;51.418;7.286;2022-07-29T10:43:16;9.15;;;4.30;;
52854;SDS011;38719;51.418;7.286;2022-07-29T10:45:47;9.30;;;4.38;;
52854;SDS011;38719;51.418;7.286;2022-07-29T10:48:17;10.45;;;4.30;;
52854;SDS011;38719;51.418;7.286;2022-07-29T10:50:51;13.48;;;4.32;;
52854;SDS011;38719;51.418;7.286;2022-07-29T10:53:20;10.15;;;3.92;;
52854;SDS011;38719;51.418;7.286;2022-07-29T10:55:49;9.73;;;4.13;;
52854;SDS011;38719;51.418;7.286;2022-07-29T10:58:19;11.88;;;4.18;;
52854;SDS011;38719;51.418;7.286;2022-07-29T11:00:48;8.15;;;4.90;;
52854;SDS011;38719;51.418;7.286;2022-07-29T11:06:16;16.27;;;7.20;;
52854;SDS011;38719;51.418;7.286;2022-07-29T11:11:43;9.82;;;4.78;;
52854;SDS011;38719;51.418;7.286;2022-07-29T11:14:17;10.50;;;4.38;;
52854;SDS011;38719;51.418;7.286;2022-07-29T11:16:58;8.48;;;4.20;;
52854;SDS011;38719;51.418;7.286;2022-07-29T11:19:31;8.90;;;4.18;;
52854;SDS011;38719;51.418;7.286;2022-07-29T11:22:00;15.77;;;5.15;;
52854;SDS011;38719;51.418;7.286;2022-07-29T11:24:31;9.18;;;5.30;;
52854;SDS011;38719;51.418;7.286;2022-07-29T11:27:08;10.02;;;4.88;;
52854;SDS011;38719;51.418;7.286;2022-07-29T11:29:39;8.43;;;5.05;;
52854;SDS011;38719;51.418;7.286;2022-07-29T11:32:15;10.52;;;4.70;;
52854;SDS011;38719;51.418;7.286;2022-07-29T11:34:49;9.38;;;4.80;;
52854;SDS011;38719;51.418;7.286;2022-07-29T11:43:53;16.05;;;5.13;;
52854;SDS011;38719;51.418;7.286;2022-07-29T11:49:12;8.63;;;4.45;;
52854;SDS011;38719;51.418;7.286;2022-07-29T11:51:51;12.32;;;4.63;;
52854;SDS011;38719;51.418;7.286;2022-07-29T11:54:21;10.02;;;5.03;;
52854;SDS011;38719;51.418;7.286;2022-07-29T11:56:52;8.48;;;4.80;;
52854;SDS011;38719;51.418;7.286;2022-07-29T11:59:21;9.60;;;5.22;;
52854;SDS011;38719;51.418;7.286;2022-07-29T12:01:58;11.18;;;4.85;;
52854;SDS011;38719;51.418;7.286;2022-07-29T12:04:49;10.23;;;4.90;;
52854;SDS011;38719;51.418;7.286;2022-07-29T12:07:19;10.88;;;5.28;;
52854;SDS011;38719;51.418;7.286;2022-07-29T12:10:00;13.60;;;5.53;;
52854;SDS011;38719;51.418;7.286;2022-07-29T12:12:31;9.10;;;5.25;;
52854;SDS011;38719;51.418;7.286;2022-07-29T12:15:09;10.23;;;4.85;;
52854;SDS011;38719;51.418;7.286;2022-07-29T12:17:38;13.65;;;5.05;;
52854;SDS011;38719;51.418;7.286;2022-07-29T12:20:07;13.25;;;4.57;;
52854;SDS011;38719;51.418;7.286;2022-07-29T12:22:39;12.73;;;5.10;;
52854;SDS011;38719;51.418;7.286;2022-07-29T12:25:11;8.50;;;4.60;;
52854;SDS011;38719;51.418;7.286;2022-07-29T12:27:58;11.02;;;4.80;;
52854;SDS011;38719;51.418;7.286;2022-07-29T12:30:37;10.82;;;4.22;;
52854;SDS011;38719;51.418;7.286;2022-07-29T12:33:11;8.15;;;4.35;;
52854;SDS011;38719;51.418;7.286;2022-07-29T12:35:47;8.40;;;4.05;;
52854;SDS011;38719;51.418;7.286;2022-07-29T12:38:33;12.48;;;5.88;;
52854;SDS011;38719;51.418;7.286;2022-07-29T12:41:02;10.50;;;4.50;;
52854;SDS011;38719;51.418;7.286;2022-07-29T12:43:30;6.70;;;4.60;;
52854;SDS011;38719;51.418;7.286;2022-07-29T12:46:00;6.90;;;4.00;;
52854;SDS011;38719;51.418;7.286;2022-07-29T12:48:42;11.90;;;3.97;;
52854;SDS011;38719;51.418;7.286;2022-07-29T12:51:10;6.20;;;4.13;;
52854;SDS011;38719;51.418;7.286;2022-07-29T12:54:01;11.05;;;4.30;;
52854;SDS011;38719;51.418;7.286;2022-07-29T12:56:30;10.73;;;5.45;;
52854;SDS011;38719;51.418;7.286;2022-07-29T12:59:15;9.27;;;3.67;;
52854;SDS011;38719;51.418;7.286;2022-07-29T13:01:44;5.18;;;3.13;;
52854;SDS011;38719;51.418;7.286;2022-07-29T13:04:23;10.25;;;4.05;;
52854;SDS011;38719;51.418;7.286;2022-07-29T13:06:57;9.85;;;3.63;;
52854;SDS011;38719;51.418;7.286;2022-07-29T13:09:37;8.27;;;3.70;;
52854;SDS011;38719;51.418;7.286;2022-07-29T13:12:06;8.52;;;4.07;;
52854;SDS011;38719;51.418;7.286;2022-07-29T13:14:36;15.65;;;3.90;;
52854;SDS011;38719;51.418;7.286;2022-07-29T13:17:06;7.35;;;4.13;;
52854;SDS011;38719;51.418;7.286;2022-07-29T13:19:35;11.60;;;3.80;;
52854;SDS011;38719;51.418;7.286;2022-07-29T13:22:06;11.15;;;3.90;;
52854;SDS011;38719;51.418;7.286;2022-07-29T13:24:34;11.45;;;3.75;;
52854;SDS011;38719;51.418;7.286;2022-07-29T13:27:14;8.63;;;3.67;;
52854;SDS011;38719;51.418;7.286;2022-07-29T13:29:41;9.40;;;3.58;;
52854;SDS011;38719;51.418;7.286;2022-07-29T13:32:10;6.75;;;3.30;;
52854;SDS011;38719;51.418;7.286;2022-07-29T13:34:39;10.95;;;3.58;;
52854;SDS011;38719;51.418;7.286;2022-07-29T13:37:06;9.63;;;3.70;;
52854;SDS011;38719;51.418;7.286;2022-07-29T13:39:34;12.38;;;3.67;;
52854;SDS011;38719;51.418;7.286;2022-07-29T13:42:04;8.68;;;4.28;;
52854;SDS011;38719;51.418;7.286;2022-07-29T13:44:36;7.55;;;3.55;;
52854;SDS011;38719;51.418;7.286;2022-07-29T13:47:04;7.55;;;3.63;;
52854;SDS011;38719;51.418;7.286;2022-07-29T13:49:32;6.72;;;3.78;;
52854;SDS011;38719;51.418;7.286;2022-07-29T13:51:59;9.77;;;3.40;;
52854;SDS011;38719;51.418;7.286;2022-07-29T13:54:27;11.00;;;3.55;;
52854;SDS011;38719;51.418;7.286;2022-07-29T13:56:55;7.63;;;3.58;;
52854;SDS011;38719;51.418;7.286;2022-07-29T13:59:24;9.80;;;3.38;;
52854;SDS011;38719;51.418;7.286;2022-07-29T14:01:51;5.97;;;3.03;;
52854;SDS011;38719;51.418;7.286;2022-07-29T14:04:19;7.03;;;3.20;;
52854;SDS011;38719;51.418;7.286;2022-07-29T14:06:47;6.68;;;3.25;;
52854;SDS011;38719;51.418;7.286;2022-07-29T14:09:15;9.95;;;3.38;;
52854;SDS011;38719;51.418;7.286;2022-07-29T14:11:43;7.82;;;3.78;;
52854;SDS011;38719;51.418;7.286;2022-07-29T14:14:11;7.65;;;3.85;;
52854;SDS011;38719;51.418;7.286;2022-07-29T14:16:40;6.18;;;3.30;;
52854;SDS011;38719;51.418;7.286;2022-07-29T14:19:15;15.07;;;3.83;;
52854;SDS011;38719;51.418;7.286;2022-07-29T14:21:43;6.82;;;3.22;;
52854;SDS011;38719;51.418;7.286;2022-07-29T14:24:11;12.55;;;3.20;;
52854;SDS011;38719;51.418;7.286;2022-07-29T14:26:46;7.40;;;3.10;;
52854;SDS011;38719;51.418;7.286;2022-07-29T14:29:14;5.28;;;3.35;;
52854;SDS011;38719;51.418;7.286;2022-07-29T14:31:43;11.98;;;3.80;;
52854;SDS011;38719;51.418;7.286;2022-07-29T14:34:10;8.43;;;3.92;;
52854;SDS011;38719;51.418;7.286;2022-07-29T14:36:38;6.88;;;3.25;;
52854;SDS011;38719;51.418;7.286;2022-07-29T14:39:06;8.60;;;3.22;;
52854;SDS011;38719;51.418;7.286;2022-07-29T14:41:33;7.68;;;3.35;;
52854;SDS011;38719;51.418;7.286;2022-07-29T14:44:01;5.68;;;3.05;;
52854;SDS011;38719;51.418;7.286;2022-07-29T14:46:28;6.28;;;3.33;;
52854;SDS011;38719;51.418;7.286;2022-07-29T14:48:57;8.65;;;3.38;;
52854;SDS011;38719;51.418;7.286;2022-07-29T14:51:25;7.43;;;2.92;;
52854;SDS011;38719;51.418;7.286;2022-07-29T14:53:57;7.63;;;3.00;;
52854;SDS011;38719;51.418;7.286;2022-07-29T14:56:25;10.93;;;3.50;;
52854;SDS011;38719;51.418;7.286;2022-07-29T14:59:02;6.22;;;2.90;;
52854;SDS011;38719;51.418;7.286;2022-07-29T15:01:30;6.70;;;2.90;;
52854;SDS011;38719;51.418;7.286;2022-07-29T15:03:59;10.27;;;3.30;;
52854;SDS011;38719;51.418;7.286;2022-07-29T15:06:27;6.50;;;3.25;;
52854;SDS011;38719;51.418;7.286;2022-07-29T15:08:54;8.63;;;2.90;;
52854;SDS011;38719;51.418;7.286;2022-07-29T15:11:22;7.82;;;3.10;;
52854;SDS011;38719;51.418;7.286;2022-07-29T15:13:49;5.78;;;2.80;;
52854;SDS011;38719;51.418;7.286;2022-07-29T15:16:17;10.38;;;3.45;;
52854;SDS011;38719;51.418;7.286;2022-07-29T15:18:45;10.68;;;3.47;;
52854;SDS011;38719;51.418;7.286;2022-07-29T15:21:14;7.47;;;3.03;;
52854;SDS011;38719;51.418;7.286;2022-07-29T15:23:41;6.63;;;3.42;;
52854;SDS011;38719;51.418;7.286;2022-07-29T15:26:09;6.70;;;2.67;;